Time;durP1;ratioP1;P1;durP2;ratioP2;P2;SDS_P1;SDS_P2;PMS_P1;PMS_P2;Temp;Humidity;BMP_temperature;BMP_pressure;BME280_temperature;BME280_humidity;BME280_pressure;Samples;Min_cycle;Max_cycle;Signal;HPM_P1;HPM_P2
2022/06/30 00:01:35;;;;;;;6.67;4.83;;;20.50;99.90;;;;;;5034679;28;20575;-80
2022/06/30 00:04:01;;;;;;;6.93;4.80;;;20.50;99.90;;;;;;5035069;28;20263;-81
2022/06/30 00:06:27;;;;;;;7.57;4.23;;;20.50;99.90;;;;;;5034574;28;20228;-80
2022/06/30 00:08:53;;;;;;;8.40;4.87;;;20.40;99.90;;;;;;5034238;28;20513;-80
2022/06/30 00:11:20;;;;;;;6.10;4.27;;;20.40;99.90;;;;;;5034657;28;20194;-80
2022/06/30 00:13:46;;;;;;;5.93;4.70;;;20.40;99.90;;;;;;5034825;28;20422;-80
2022/06/30 00:16:12;;;;;;;8.00;4.90;;;20.30;99.90;;;;;;5034679;28;20430;-81
2022/06/30 00:18:38;;;;;;;7.63;4.43;;;20.30;99.90;;;;;;5034623;28;20493;-80
2022/06/30 00:21:04;;;;;;;6.00;4.97;;;20.30;99.90;;;;;;5034640;28;20874;-80
2022/06/30 00:23:31;;;;;;;5.50;4.30;;;20.30;99.90;;;;;;5034609;28;20425;-80
2022/06/30 00:25:57;;;;;;;5.53;4.67;;;20.30;99.90;;;;;;5034442;28;20422;-80
2022/06/30 00:28:23;;;;;;;6.83;5.07;;;20.30;99.90;;;;;;5034761;28;20529;-80
2022/06/30 00:30:50;;;;;;;7.00;4.77;;;20.20;99.90;;;;;;5034955;28;20422;-80
2022/06/30 00:33:17;;;;;;;5.20;4.33;;;20.20;99.90;;;;;;5034825;28;20430;-80
2022/06/30 00:35:43;;;;;;;8.20;5.03;;;20.20;99.90;;;;;;5034308;28;20837;-81
2022/06/30 00:38:10;;;;;;;7.60;5.40;;;20.20;99.90;;;;;;5034113;28;20442;-80
2022/06/30 00:40:36;;;;;;;7.27;5.00;;;20.20;99.90;;;;;;5034182;28;20473;-80
2022/06/30 00:43:02;;;;;;;6.23;5.17;;;20.10;99.90;;;;;;5034629;28;20418;-80
2022/06/30 00:45:28;;;;;;;6.90;5.27;;;20.10;99.90;;;;;;5034262;28;20521;-80
2022/06/30 00:47:54;;;;;;;10.47;5.10;;;20.10;99.90;;;;;;5033933;28;20576;-80
2022/06/30 00:50:20;;;;;;;7.07;5.20;;;20.10;99.90;;;;;;5034404;28;20429;-80
2022/06/30 00:52:50;;;;;;;6.37;5.53;;;20.10;99.90;;;;;;5034370;28;20498;-80
2022/06/30 00:55:17;;;;;;;8.83;5.90;;;20.10;99.90;;;;;;5034028;28;20456;-80
2022/06/30 00:57:44;;;;;;;8.00;6.20;;;20.10;99.90;;;;;;5033076;28;20839;-80
2022/06/30 01:00:11;;;;;;;10.53;5.93;;;20.10;99.90;;;;;;5033952;28;20785;-80
2022/06/30 01:02:37;;;;;;;8.10;6.73;;;20.00;99.90;;;;;;5033996;28;20457;-80
2022/06/30 01:05:04;;;;;;;6.93;5.83;;;20.10;99.90;;;;;;5033774;28;20446;-80
2022/06/30 01:07:30;;;;;;;8.90;6.37;;;20.10;99.90;;;;;;5033687;28;20525;-80
2022/06/30 01:12:46;;;;;;;7.00;5.47;;;20.10;99.90;;;;;;5052341;28;20803;-80
2022/06/30 01:15:16;;;;;;;7.97;5.40;;;20.10;99.90;;;;;;5033853;28;20428;-80
2022/06/30 01:17:43;;;;;;;8.23;5.50;;;20.10;99.90;;;;;;5033883;28;20449;-80
2022/06/30 01:20:09;;;;;;;8.80;5.90;;;20.10;99.90;;;;;;5033647;28;20423;-79
2022/06/30 01:22:36;;;;;;;6.90;5.50;;;20.10;99.90;;;;;;5033885;28;20466;-80
2022/06/30 01:25:02;;;;;;;8.60;5.80;;;20.10;99.90;;;;;;5033662;28;20501;-80
2022/06/30 01:27:28;;;;;;;7.47;5.97;;;20.10;99.90;;;;;;5033411;28;20534;-80
2022/06/30 01:29:54;;;;;;;8.13;6.20;;;20.10;99.90;;;;;;5033973;28;20533;-80
2022/06/30 01:32:20;;;;;;;7.73;6.03;;;20.10;99.90;;;;;;5034063;28;20188;-79
2022/06/30 01:34:46;;;;;;;6.77;5.43;;;20.10;99.90;;;;;;5033711;28;20191;-80
2022/06/30 01:37:13;;;;;;;7.90;6.00;;;20.10;99.90;;;;;;5037919;28;20294;-81
2022/06/30 01:39:39;;;;;;;9.47;5.87;;;20.10;99.90;;;;;;5037474;28;20426;-81
2022/06/30 01:42:05;;;;;;;6.50;5.80;;;20.10;99.90;;;;;;5037306;28;20526;-81
2022/06/30 01:44:31;;;;;;;7.83;5.67;;;20.10;99.90;;;;;;5037929;28;20692;-80
2022/06/30 01:46:56;;;;;;;6.20;4.83;;;20.10;99.90;;;;;;5036729;28;20438;-81
2022/06/30 01:49:22;;;;;;;6.93;5.53;;;20.10;99.90;;;;;;5037665;28;20257;-80
2022/06/30 01:51:48;;;;;;;7.47;5.30;;;20.00;99.90;;;;;;5036734;28;20245;-81
2022/06/30 01:56:45;;;;;;;7.77;5.30;;;20.00;99.90;;;;;;5052180;22;20240;-79
2022/06/30 01:59:11;;;;;;;8.30;5.37;;;20.00;99.90;;;;;;5032415;28;20506;-79
2022/06/30 02:01:37;;;;;;;9.00;5.40;;;20.00;99.90;;;;;;5031467;28;20208;-78
2022/06/30 02:06:47;;;;;;;7.50;5.53;;;19.90;99.90;;;;;;5012409;28;20248;-80
2022/06/30 02:09:13;;;;;;;6.83;5.67;;;19.90;99.90;;;;;;5013891;28;20435;-78
2022/06/30 02:11:39;;;;;;;9.27;6.07;;;19.90;99.90;;;;;;5015914;28;20219;-78
2022/06/30 02:14:04;;;;;;;8.20;6.00;;;19.80;99.90;;;;;;5015699;28;20188;-78
2022/06/30 02:16:30;;;;;;;8.07;5.50;;;19.70;99.90;;;;;;5015237;28;20196;-78
2022/06/30 02:18:56;;;;;;;8.40;6.60;;;19.70;99.90;;;;;;5015745;28;20212;-78
2022/06/30 02:21:22;;;;;;;8.43;6.77;;;19.70;99.90;;;;;;5015894;28;20240;-79
2022/06/30 02:23:47;;;;;;;10.43;6.10;;;19.70;99.90;;;;;;5015706;28;20498;-78
2022/06/30 02:26:13;;;;;;;8.77;6.40;;;19.70;99.90;;;;;;5015462;28;20216;-78
2022/06/30 02:28:38;;;;;;;10.20;6.27;;;19.70;99.90;;;;;;5015418;28;20178;-78
2022/06/30 02:31:04;;;;;;;8.63;5.67;;;19.70;99.90;;;;;;5015370;28;20217;-79
2022/06/30 02:33:29;;;;;;;9.23;5.90;;;19.70;99.90;;;;;;5015416;28;20212;-78
2022/06/30 02:35:55;;;;;;;9.90;6.43;;;19.70;99.90;;;;;;5015032;28;20205;-78
2022/06/30 02:38:21;;;;;;;8.93;5.87;;;19.70;99.90;;;;;;5015290;28;20695;-78
2022/06/30 02:40:46;;;;;;;10.33;6.33;;;19.70;99.90;;;;;;5014961;28;20211;-78
2022/06/30 02:43:12;;;;;;;8.73;5.70;;;19.70;99.90;;;;;;4997785;28;20208;-78
2022/06/30 02:45:37;;;;;;;9.13;6.70;;;19.70;99.90;;;;;;5014918;28;20192;-78
2022/06/30 02:48:03;;;;;;;7.40;6.13;;;19.70;99.90;;;;;;5017124;28;20211;-78
2022/06/30 02:50:29;;;;;;;10.50;6.87;;;19.70;99.90;;;;;;4999781;28;20189;-79
2022/06/30 02:52:55;;;;;;;9.47;6.47;;;19.70;99.90;;;;;;5016567;28;20212;-80
2022/06/30 02:55:21;;;;;;;10.17;6.60;;;19.60;99.90;;;;;;5017157;28;20633;-79
2022/06/30 02:57:47;;;;;;;8.07;6.90;;;19.70;99.90;;;;;;5016386;28;20526;-79
2022/06/30 03:00:13;;;;;;;9.47;6.10;;;19.60;99.90;;;;;;5016681;28;20465;-78
2022/06/30 03:02:39;;;;;;;12.07;6.70;;;19.60;99.90;;;;;;5016259;28;20201;-79
2022/06/30 03:05:05;;;;;;;9.20;7.33;;;19.60;99.90;;;;;;5016366;28;20442;-78
2022/06/30 03:07:31;;;;;;;13.33;7.27;;;19.60;99.90;;;;;;4998030;28;20184;-79
2022/06/30 03:09:57;;;;;;;12.30;7.00;;;19.60;99.90;;;;;;5015604;28;20416;-79
2022/06/30 03:12:22;;;;;;;10.03;6.90;;;19.60;99.90;;;;;;5015043;28;20181;-78
2022/06/30 03:14:48;;;;;;;9.60;6.97;;;19.60;99.90;;;;;;5014775;28;20205;-78
2022/06/30 03:17:13;;;;;;;11.80;7.17;;;19.60;99.90;;;;;;5015139;28;20185;-78
2022/06/30 03:19:39;;;;;;;9.13;6.27;;;19.50;99.90;;;;;;5015139;28;20691;-80
2022/06/30 03:22:05;;;;;;;9.70;7.00;;;19.50;99.90;;;;;;4997554;28;20742;-78
2022/06/30 03:24:30;;;;;;;9.03;6.50;;;19.40;99.90;;;;;;5015141;28;20188;-78
2022/06/30 03:26:56;;;;;;;9.90;6.20;;;19.50;99.90;;;;;;5009574;28;20189;-79
2022/06/30 03:29:22;;;;;;;13.70;6.90;;;19.50;99.90;;;;;;5015220;28;20184;-78
2022/06/30 03:31:47;;;;;;;10.50;6.50;;;19.50;99.90;;;;;;5015119;28;20189;-79
2022/06/30 03:34:13;;;;;;;9.17;6.47;;;19.50;99.90;;;;;;5014996;28;20192;-78
2022/06/30 03:36:38;;;;;;;11.53;6.40;;;19.40;99.90;;;;;;5014434;28;20658;-78
2022/06/30 03:39:05;;;;;;;10.10;6.20;;;19.40;99.90;;;;;;5014842;28;20181;-78
2022/06/30 03:41:31;;;;;;;11.90;6.47;;;19.50;99.90;;;;;;5014330;28;20212;-78
2022/06/30 03:43:56;;;;;;;7.87;5.83;;;19.50;99.90;;;;;;5014742;28;20416;-78
2022/06/30 03:46:22;;;;;;;8.30;7.00;;;19.40;99.90;;;;;;5013904;28;20209;-78
2022/06/30 03:48:47;;;;;;;8.70;5.97;;;19.40;99.90;;;;;;5014551;28;20180;-78
2022/06/30 03:51:13;;;;;;;8.53;7.27;;;19.50;99.90;;;;;;5013122;28;20559;-78
2022/06/30 03:53:39;;;;;;;7.23;6.37;;;19.50;99.90;;;;;;5014475;28;20181;-78
2022/06/30 03:56:05;;;;;;;7.97;6.33;;;19.50;99.90;;;;;;5014037;28;20217;-79
2022/06/30 03:58:30;;;;;;;8.90;7.30;;;19.50;99.90;;;;;;5014145;28;20181;-78
2022/06/30 04:00:56;;;;;;;12.13;7.00;;;19.50;99.90;;;;;;5013884;28;20460;-78
2022/06/30 04:03:21;;;;;;;7.53;6.23;;;19.50;99.90;;;;;;5013990;28;20260;-78
2022/06/30 04:05:47;;;;;;;13.37;8.10;;;19.60;99.90;;;;;;5013860;28;20687;-78
2022/06/30 04:08:12;;;;;;;10.07;7.27;;;19.60;99.90;;;;;;5014077;28;20530;-78
2022/06/30 04:10:38;;;;;;;11.67;7.80;;;19.60;99.90;;;;;;5014321;28;20185;-78
2022/06/30 04:13:04;;;;;;;9.27;7.20;;;19.60;99.90;;;;;;5014195;28;20204;-78
2022/06/30 04:15:30;;;;;;;8.50;7.60;;;19.70;99.90;;;;;;5013399;28;20569;-78
2022/06/30 04:17:56;;;;;;;9.10;7.90;;;19.70;99.90;;;;;;5013453;28;20666;-78
2022/06/30 04:20:21;;;;;;;10.27;7.80;;;19.80;99.90;;;;;;5013702;28;20503;-78
2022/06/30 04:22:48;;;;;;;9.50;7.20;;;19.80;99.90;;;;;;5013525;28;20212;-78
2022/06/30 04:25:15;;;;;;;11.70;8.00;;;19.90;99.90;;;;;;5013300;28;20204;-78
2022/06/30 04:27:46;;;;;;;10.90;9.23;;;19.90;99.90;;;;;;5013078;28;20519;-78
2022/06/30 04:30:13;;;;;;;11.70;7.47;;;19.90;99.90;;;;;;5012953;28;20771;-78
2022/06/30 04:32:38;;;;;;;10.07;7.43;;;20.00;99.90;;;;;;5013096;28;20474;-78
2022/06/30 04:35:11;;;;;;;10.83;7.07;;;20.00;99.90;;;;;;5013342;28;20432;-78
2022/06/30 04:37:40;;;;;;;12.30;7.70;;;20.00;99.90;;;;;;5013014;28;20663;-79
2022/06/30 04:42:51;;;;;;;12.10;9.27;;;20.10;99.90;;;;;;5013144;28;20454;-78
2022/06/30 04:45:17;;;;;;;8.90;7.07;;;20.20;99.90;;;;;;5012803;28;20424;-78
2022/06/30 04:47:42;;;;;;;9.27;7.60;;;20.20;99.90;;;;;;5013114;28;20616;-78
2022/06/30 04:50:08;;;;;;;9.00;6.93;;;20.30;99.90;;;;;;5012862;28;20173;-78
2022/06/30 04:52:34;;;;;;;9.83;7.67;;;20.30;99.90;;;;;;5013239;28;20193;-78
2022/06/30 04:55:00;;;;;;;13.10;7.53;;;20.40;99.90;;;;;;5012777;28;20444;-78
2022/06/30 04:57:26;;;;;;;7.53;6.47;;;20.40;99.90;;;;;;5012709;28;20165;-77
2022/06/30 04:59:52;;;;;;;8.83;7.93;;;20.50;99.90;;;;;;5013116;28;20465;-79
2022/06/30 05:02:17;;;;;;;11.10;7.93;;;20.60;99.90;;;;;;5012755;28;20240;-78
2022/06/30 05:04:43;;;;;;;9.00;7.90;;;20.60;99.90;;;;;;5013495;28;20200;-79
2022/06/30 05:07:09;;;;;;;12.27;8.00;;;20.60;99.90;;;;;;5013602;28;20173;-78
2022/06/30 05:09:35;;;;;;;9.50;7.70;;;20.70;99.90;;;;;;5014102;28;20461;-78
2022/06/30 05:12:01;;;;;;;16.80;8.13;;;20.80;99.90;;;;;;5012513;28;20514;-78
2022/06/30 05:14:26;;;;;;;9.90;7.87;;;20.80;99.90;;;;;;5013581;28;20177;-78
2022/06/30 05:16:52;;;;;;;13.43;8.07;;;20.80;99.90;;;;;;5013504;28;20177;-78
2022/06/30 05:19:17;;;;;;;8.77;7.57;;;20.90;99.90;;;;;;5013372;28;20259;-78
2022/06/30 05:21:43;;;;;;;12.90;7.37;;;20.90;99.90;;;;;;5013857;28;20212;-78
2022/06/30 05:26:52;;;;;;;8.97;7.13;;;21.10;99.90;;;;;;5013621;28;20172;-79
2022/06/30 05:29:18;;;;;;;8.27;6.53;;;21.20;99.90;;;;;;5013388;28;20412;-78
2022/06/30 05:31:43;;;;;;;8.13;6.40;;;21.30;99.90;;;;;;5013373;28;20177;-78
2022/06/30 05:34:09;;;;;;;9.47;7.10;;;21.40;99.90;;;;;;5013530;28;20177;-78
2022/06/30 05:36:34;;;;;;;12.47;7.80;;;21.40;99.90;;;;;;5013625;28;20285;-80
2022/06/30 05:39:00;;;;;;;9.80;6.60;;;21.50;99.90;;;;;;5014166;28;20181;-78
2022/06/30 05:41:26;;;;;;;8.17;7.00;;;21.50;99.90;;;;;;5013423;28;20205;-79
2022/06/30 05:43:52;;;;;;;9.63;6.93;;;21.70;99.90;;;;;;5014171;28;20196;-78
2022/06/30 05:46:18;;;;;;;8.33;6.60;;;21.70;99.90;;;;;;5017411;28;20236;-78
2022/06/30 05:48:43;;;;;;;10.93;6.80;;;21.80;99.90;;;;;;5017693;28;20823;-79
2022/06/30 05:51:09;;;;;;;9.60;7.20;;;21.90;99.90;;;;;;5016737;28;20185;-79
2022/06/30 05:53:34;;;;;;;8.70;7.70;;;22.00;99.90;;;;;;5017238;28;20181;-78
2022/06/30 05:56:00;;;;;;;8.77;6.73;;;22.10;99.90;;;;;;5016715;28;20248;-78
2022/06/30 05:58:26;;;;;;;7.33;6.10;;;22.20;99.90;;;;;;5016136;28;20227;-78
2022/06/30 06:00:51;;;;;;;7.20;6.40;;;22.30;99.90;;;;;;5016954;28;20226;-79
2022/06/30 06:03:17;;;;;;;8.80;6.50;;;22.40;99.90;;;;;;5016887;28;20181;-78
2022/06/30 06:05:43;;;;;;;8.83;6.67;;;22.40;99.90;;;;;;5016575;28;20697;-78
2022/06/30 06:08:10;;;;;;;8.80;7.10;;;22.50;99.90;;;;;;5015660;28;20191;-78
2022/06/30 06:10:37;;;;;;;10.23;6.53;;;22.50;99.90;;;;;;5016607;28;20279;-78
2022/06/30 06:13:03;;;;;;;7.90;6.53;;;22.60;99.90;;;;;;5016982;28;20470;-78
2022/06/30 06:15:29;;;;;;;7.63;6.30;;;22.70;99.90;;;;;;5016987;28;20436;-78
2022/06/30 06:17:54;;;;;;;7.70;6.23;;;22.80;99.90;;;;;;5015215;28;20551;-79
2022/06/30 06:20:20;;;;;;;7.13;6.03;;;22.90;99.90;;;;;;5016191;28;20219;-78
2022/06/30 06:22:46;;;;;;;7.00;5.70;;;22.90;99.90;;;;;;5016084;28;20205;-78
2022/06/30 06:25:12;;;;;;;8.37;6.20;;;23.00;99.90;;;;;;5015548;28;20193;-78
2022/06/30 06:27:39;;;;;;;11.23;6.97;;;23.10;99.90;;;;;;5014615;28;20177;-79
2022/06/30 06:30:07;;;;;;;8.23;6.73;;;23.20;99.90;;;;;;5016348;28;20786;-78
2022/06/30 06:32:33;;;;;;;7.20;6.00;;;23.30;99.90;;;;;;5015606;28;20408;-78
2022/06/30 06:34:58;;;;;;;7.60;5.90;;;23.40;99.90;;;;;;5015977;28;20447;-79
2022/06/30 06:37:24;;;;;;;9.30;6.13;;;23.50;99.90;;;;;;5015658;28;20189;-78
2022/06/30 06:39:50;;;;;;;7.23;5.73;;;23.60;99.90;;;;;;5016026;28;20288;-78
2022/06/30 06:42:15;;;;;;;6.77;6.07;;;23.70;99.90;;;;;;5016020;28;20551;-78
2022/06/30 06:44:41;;;;;;;7.13;5.00;;;23.80;99.90;;;;;;5016101;28;20196;-78
2022/06/30 06:47:07;;;;;;;6.70;6.00;;;23.90;99.90;;;;;;5015604;28;20228;-79
2022/06/30 06:49:33;;;;;;;6.57;5.60;;;24.00;99.90;;;;;;5015765;28;20301;-79
2022/06/30 06:51:59;;;;;;;8.20;5.80;;;24.00;99.90;;;;;;5015927;28;20448;-79
2022/06/30 06:54:24;;;;;;;6.87;5.70;;;24.10;99.90;;;;;;5015357;28;20547;-78
2022/06/30 06:56:50;;;;;;;7.70;6.03;;;24.20;99.90;;;;;;5015541;28;20247;-78
2022/06/30 06:59:16;;;;;;;7.50;6.20;;;24.20;99.90;;;;;;5015693;28;20640;-78
2022/06/30 07:01:42;;;;;;;7.97;7.07;;;24.30;99.90;;;;;;5015786;28;20204;-79
2022/06/30 07:04:08;;;;;;;7.07;5.33;;;24.40;99.90;;;;;;5014140;28;20515;-79
2022/06/30 07:06:34;;;;;;;8.13;6.43;;;24.50;99.90;;;;;;5015304;28;20514;-79
2022/06/30 07:09:01;;;;;;;8.67;5.70;;;24.60;99.90;;;;;;5015473;28;20692;-79
2022/06/30 07:11:26;;;;;;;8.67;5.83;;;24.70;99.90;;;;;;5015119;28;20177;-78
2022/06/30 07:13:52;;;;;;;7.43;6.13;;;24.70;99.90;;;;;;5015287;28;20408;-78
2022/06/30 07:16:18;;;;;;;8.53;5.47;;;24.80;99.90;;;;;;5014668;28;20283;-78
2022/06/30 07:18:44;;;;;;;7.90;6.00;;;24.90;99.90;;;;;;5015144;28;20187;-78
2022/06/30 07:21:09;;;;;;;7.43;6.17;;;25.00;99.90;;;;;;5014565;28;20308;-79
2022/06/30 07:23:35;;;;;;;8.37;6.23;;;25.00;99.90;;;;;;5014778;28;20228;-78
2022/06/30 07:26:01;;;;;;;10.40;6.93;;;25.10;99.90;;;;;;5008098;28;20207;-77
2022/06/30 07:28:27;;;;;;;8.80;6.63;;;25.10;99.90;;;;;;5013787;28;20184;-77
2022/06/30 07:30:53;;;;;;;7.53;5.40;;;25.10;99.90;;;;;;5013835;28;20420;-77
2022/06/30 07:33:19;;;;;;;7.67;6.23;;;25.20;99.90;;;;;;5013842;28;20260;-77
2022/06/30 07:35:45;;;;;;;8.70;5.87;;;25.20;99.90;;;;;;5013060;28;20220;-77
2022/06/30 07:38:11;;;;;;;6.93;5.10;;;25.30;99.90;;;;;;5012462;28;20927;-77
2022/06/30 07:40:37;;;;;;;6.00;5.40;;;25.40;99.90;;;;;;4995992;28;20515;-77
2022/06/30 07:43:03;;;;;;;6.43;4.87;;;25.50;99.90;;;;;;5013511;28;20173;-77
2022/06/30 07:45:29;;;;;;;6.00;4.67;;;25.70;99.90;;;;;;5013593;28;20201;-78
2022/06/30 07:47:55;;;;;;;7.77;5.13;;;25.80;99.90;;;;;;5014868;28;20444;-78
2022/06/30 07:50:21;;;;;;;8.90;5.00;;;25.90;99.90;;;;;;5013688;28;20176;-78
2022/06/30 07:52:47;;;;;;;6.83;4.87;;;26.00;99.90;;;;;;5014015;28;20655;-77
2022/06/30 07:55:13;;;;;;;8.57;5.40;;;26.00;99.90;;;;;;5007103;28;20516;-78
2022/06/30 07:57:45;;;;;;;6.00;5.20;;;26.00;99.90;;;;;;4994499;28;20184;-80
2022/06/30 08:02:42;;;;;;;6.90;4.73;;;26.20;99.90;;;;;;5049112;28;20482;-86
2022/06/30 08:05:09;;;;;;;7.30;4.73;;;26.30;99.90;;;;;;5031215;28;20799;-86
2022/06/30 08:07:35;;;;;;;9.93;5.20;;;26.50;99.90;;;;;;5030636;28;20422;-87
2022/06/30 08:10:01;;;;;;;6.13;5.00;;;26.70;99.90;;;;;;5032872;28;20457;-85
2022/06/30 08:12:27;;;;;;;8.50;5.27;;;26.90;99.90;;;;;;5031354;28;20446;-87
2022/06/30 08:14:53;;;;;;;6.73;4.70;;;27.30;99.90;;;;;;5031723;28;20610;-88
2022/06/30 08:17:18;;;;;;;6.23;4.27;;;28.30;99.90;;;;;;5032429;28;20499;-88
2022/06/30 08:19:44;;;;;;;7.00;5.50;;;29.60;99.90;;;;;;5033039;28;20918;-85
2022/06/30 08:22:10;;;;;;;4.80;3.60;;;30.60;99.90;;;;;;5032322;28;20587;-86
2022/06/30 08:24:35;;;;;;;4.53;3.33;;;31.70;99.90;;;;;;5031292;28;20176;-85
2022/06/30 08:27:02;;;;;;;4.07;3.17;;;32.60;99.90;;;;;;5030598;28;20184;-87
2022/06/30 08:29:29;;;;;;;3.80;3.10;;;33.20;95.10;;;;;;5031095;28;20183;-86
2022/06/30 08:31:54;;;;;;;4.03;2.87;;;34.10;90.80;;;;;;5030954;28;20447;-87
2022/06/30 08:34:20;;;;;;;3.90;2.90;;;34.60;85.60;;;;;;5031179;28;20431;-87
2022/06/30 08:36:46;;;;;;;3.77;2.80;;;35.10;83.40;;;;;;5030733;28;20299;-86
2022/06/30 08:42:02;;;;;;;4.57;3.50;;;35.80;79.90;;;;;;5031363;28;20223;-84
2022/06/30 08:42:03;;;;;;;5.33;3.57;;;36.30;78.70;;;;;;5033299;28;20588;-84
2022/06/30 08:44:34;;;;;;;4.37;3.20;;;36.80;76.60;;;;;;5031877;28;20427;-84
2022/06/30 08:47:02;;;;;;;4.80;2.83;;;37.30;70.10;;;;;;5031865;28;20461;-87
2022/06/30 08:49:28;;;;;;;5.40;3.80;;;38.10;70.20;;;;;;5031899;28;20803;-84
2022/06/30 08:51:58;;;;;;;3.90;3.10;;;38.80;64.80;;;;;;5033700;28;20449;-84
2022/06/30 08:54:29;;;;;;;5.23;3.50;;;39.40;61.40;;;;;;5031725;28;20438;-85
2022/06/30 08:56:57;;;;;;;4.23;3.83;;;40.10;58.00;;;;;;5031340;28;20422;-85
2022/06/30 08:59:24;;;;;;;5.70;3.60;;;40.20;53.80;;;;;;5033380;28;20411;-85
2022/06/30 09:01:50;;;;;;;4.50;3.43;;;40.10;52.40;;;;;;5032673;28;20533;-83
2022/06/30 09:04:16;;;;;;;4.90;3.30;;;40.60;52.20;;;;;;5033979;28;20422;-84
2022/06/30 09:06:45;;;;;;;6.90;4.07;;;40.60;51.20;;;;;;5033412;28;20424;-85
2022/06/30 09:09:11;;;;;;;5.10;3.60;;;41.10;49.30;;;;;;5033867;28;20175;-86
2022/06/30 09:11:48;;;;;;;4.50;3.17;;;41.50;47.40;;;;;;5032702;28;20895;-84
2022/06/30 09:14:42;;;;;;;6.07;3.20;;;41.50;46.60;;;;;;5034329;28;20468;-84
2022/06/30 09:17:17;;;;;;;4.40;3.50;;;41.70;45.10;;;;;;5032643;28;20411;-85
2022/06/30 09:19:53;;;;;;;3.87;3.20;;;41.50;45.00;;;;;;5034955;28;20425;-83
2022/06/30 09:22:21;;;;;;;8.17;3.60;;;41.50;44.50;;;;;;5038041;28;20509;-85
2022/06/30 09:25:18;;;;;;;6.10;3.33;;;41.70;43.90;;;;;;5038302;28;20417;-87
2022/06/30 09:27:47;;;;;;;5.60;3.70;;;42.20;45.50;;;;;;5020097;28;20171;-86
2022/06/30 09:30:15;;;;;;;3.67;2.83;;;42.40;43.80;;;;;;5038231;28;20175;-85
2022/06/30 09:32:46;;;;;;;4.73;3.27;;;42.60;44.40;;;;;;5038062;28;20196;-83
2022/06/30 09:35:12;;;;;;;4.30;3.23;;;42.80;41.90;;;;;;5035974;28;20202;-84
2022/06/30 09:37:38;;;;;;;5.53;3.37;;;42.70;40.70;;;;;;5036930;28;20176;-84
2022/06/30 09:40:06;;;;;;;5.83;3.37;;;42.60;41.00;;;;;;5036161;28;20180;-86
2022/06/30 09:42:47;;;;;;;7.50;3.97;;;42.70;41.20;;;;;;5036734;28;20196;-85
2022/06/30 09:45:14;;;;;;;5.00;3.93;;;42.30;42.00;;;;;;5036801;28;20180;-84
2022/06/30 09:47:54;;;;;;;5.50;3.80;;;41.90;42.30;;;;;;5034606;28;20607;-83
2022/06/30 09:50:20;;;;;;;5.17;4.00;;;41.50;42.30;;;;;;5026147;28;20207;-83
2022/06/30 09:53:07;;;;;;;6.13;4.10;;;41.10;42.60;;;;;;5054802;28;20695;-84
2022/06/30 09:55:43;;;;;;;4.90;3.83;;;40.20;42.70;;;;;;5059102;28;20493;-87
2022/06/30 09:58:11;;;;;;;6.50;3.40;;;39.40;44.20;;;;;;5038942;28;20445;-83
2022/06/30 10:00:45;;;;;;;3.57;3.03;;;39.30;44.70;;;;;;5054681;28;20449;-84
2022/06/30 10:03:11;;;;;;;9.37;4.03;;;39.10;44.70;;;;;;5037603;28;20951;-84
2022/06/30 10:05:38;;;;;;;8.60;3.13;;;38.90;45.10;;;;;;5031512;28;20471;-83
2022/06/30 10:08:05;;;;;;;6.33;3.30;;;39.10;45.90;;;;;;5038041;28;20175;-83
2022/06/30 10:10:31;;;;;;;5.53;3.07;;;39.40;45.80;;;;;;5038012;28;20438;-84
2022/06/30 10:12:57;;;;;;;3.80;2.80;;;39.80;45.60;;;;;;5056352;28;20429;-84
2022/06/30 10:15:23;;;;;;;3.50;3.20;;;40.30;44.90;;;;;;5038706;28;20471;-84
2022/06/30 10:17:54;;;;;;;4.33;2.70;;;40.50;45.30;;;;;;5056130;28;20179;-85
2022/06/30 10:20:20;;;;;;;5.80;3.00;;;40.40;43.90;;;;;;5056310;28;20222;-83
2022/06/30 10:22:46;;;;;;;6.23;3.00;;;40.40;44.60;;;;;;5037262;28;20482;-82
2022/06/30 10:25:12;;;;;;;3.67;2.80;;;40.00;43.60;;;;;;5056145;28;20897;-81
2022/06/30 10:27:39;;;;;;;5.80;3.07;;;39.40;43.20;;;;;;5055106;28;20199;-82
2022/06/30 10:30:10;;;;;;;5.17;2.90;;;38.70;43.80;;;;;;5037294;28;20422;-82
2022/06/30 10:32:55;;;;;;;3.47;3.17;;;38.60;44.90;;;;;;5055829;28;20880;-82
2022/06/30 10:35:51;;;;;;;4.33;2.80;;;38.30;45.30;;;;;;5055857;28;20406;-82
2022/06/30 10:38:30;;;;;;;3.70;3.30;;;38.40;46.00;;;;;;5055752;28;20471;-81
2022/06/30 10:41:12;;;;;;;3.90;2.90;;;38.30;45.40;;;;;;5053928;28;20430;-86
2022/06/30 10:44:05;;;;;;;8.63;3.13;;;37.70;46.50;;;;;;5054347;28;20406;-85
2022/06/30 10:46:35;;;;;;;3.97;3.23;;;37.20;46.30;;;;;;5054453;28;20410;-82
2022/06/30 10:49:09;;;;;;;7.03;2.63;;;36.80;46.00;;;;;;5054935;28;20410;-84
2022/06/30 10:51:35;;;;;;;5.50;2.67;;;36.40;46.40;;;;;;5054392;28;20461;-83
2022/06/30 10:54:01;;;;;;;7.20;3.37;;;36.00;47.50;;;;;;5054762;28;20418;-84
2022/06/30 10:56:49;;;;;;;4.00;2.80;;;36.10;47.80;;;;;;5036498;28;20577;-84
2022/06/30 10:59:16;;;;;;;8.17;3.20;;;36.50;47.70;;;;;;5045071;28;20310;-84
2022/06/30 11:02:11;;;;;;;6.57;2.50;;;36.80;47.50;;;;;;5054849;28;20486;-85
2022/06/30 11:04:42;;;;;;;5.07;2.80;;;37.00;46.60;;;;;;5027358;28;20517;-86
2022/06/30 11:07:09;;;;;;;6.43;2.50;;;36.60;45.60;;;;;;5040390;28;20475;-86
2022/06/30 11:09:44;;;;;;;5.30;2.53;;;36.50;47.00;;;;;;5057920;28;20414;-85
2022/06/30 11:12:11;;;;;;;4.87;3.27;;;36.00;47.10;;;;;;5057713;28;20449;-84
2022/06/30 11:14:36;;;;;;;4.57;3.07;;;35.40;47.80;;;;;;5058038;28;20961;-85
2022/06/30 11:17:13;;;;;;;4.27;2.97;;;35.10;48.00;;;;;;5056152;28;20442;-85
2022/06/30 11:19:39;;;;;;;6.30;2.97;;;34.60;48.90;;;;;;5058258;28;20243;-85
2022/06/30 11:22:07;;;;;;;4.93;2.57;;;34.30;50.10;;;;;;5056923;28;20480;-85
2022/06/30 11:24:37;;;;;;;3.90;2.90;;;34.00;51.30;;;;;;5040228;28;20175;-85
2022/06/30 11:27:25;;;;;;;5.00;2.87;;;33.60;51.50;;;;;;5052319;28;20418;-84
2022/06/30 11:30:05;;;;;;;5.77;3.40;;;33.70;51.90;;;;;;5054126;28;20493;-85
2022/06/30 11:32:31;;;;;;;6.43;3.43;;;33.70;51.60;;;;;;5039238;28;20466;-84
2022/06/30 11:34:58;;;;;;;3.13;2.57;;;33.40;51.50;;;;;;5057444;28;20410;-84
2022/06/30 11:37:26;;;;;;;4.67;3.07;;;33.00;52.30;;;;;;5039171;28;20622;-85
2022/06/30 11:40:06;;;;;;;3.77;2.77;;;32.90;54.30;;;;;;5039359;28;20778;-85
2022/06/30 11:42:32;;;;;;;5.93;3.23;;;32.80;53.30;;;;;;5055858;28;20476;-86
2022/06/30 11:44:58;;;;;;;8.60;2.90;;;32.60;54.50;;;;;;5038540;28;20426;-84
2022/06/30 11:47:28;;;;;;;6.80;3.57;;;32.60;54.60;;;;;;5055863;28;20881;-85
2022/06/30 11:49:58;;;;;;;5.07;3.23;;;32.60;54.50;;;;;;5039148;28;20853;-86
2022/06/30 11:52:35;;;;;;;3.70;3.10;;;32.30;52.90;;;;;;5038432;28;20461;-84
2022/06/30 11:55:06;;;;;;;3.47;2.57;;;32.00;53.60;;;;;;5056440;28;20912;-85
2022/06/30 11:57:35;;;;;;;5.20;2.97;;;31.60;53.80;;;;;;5037616;28;20467;-85
2022/06/30 12:00:06;;;;;;;5.43;3.30;;;31.60;54.90;;;;;;5038435;28;20533;-85
2022/06/30 12:02:33;;;;;;;5.20;3.40;;;31.60;56.80;;;;;;5037728;28;20461;-84
2022/06/30 12:05:01;;;;;;;4.50;4.10;;;31.70;58.80;;;;;;5037810;28;20492;-84
2022/06/30 12:07:28;;;;;;;5.57;3.50;;;31.80;61.20;;;;;;5055787;28;20410;-83
2022/06/30 12:09:55;;;;;;;5.90;3.63;;;32.10;58.90;;;;;;5037801;28;20840;-86
2022/06/30 12:12:28;;;;;;;4.30;2.90;;;32.00;56.80;;;;;;5055367;28;21011;-84
2022/06/30 12:14:56;;;;;;;6.50;3.60;;;32.20;59.40;;;;;;5038021;28;20415;-86
2022/06/30 12:17:23;;;;;;;5.83;3.57;;;32.30;60.90;;;;;;5056056;28;20414;-86
2022/06/30 12:19:51;;;;;;;4.10;3.10;;;32.20;58.30;;;;;;5037948;28;20454;-86
2022/06/30 12:22:18;;;;;;;6.03;4.10;;;32.20;58.40;;;;;;5053754;28;20449;-83
2022/06/30 12:24:47;;;;;;;4.40;3.90;;;32.10;57.50;;;;;;5035674;28;20437;-84
2022/06/30 12:27:36;;;;;;;5.20;3.37;;;32.00;57.70;;;;;;5034541;28;20449;-84
2022/06/30 12:30:07;;;;;;;4.77;3.40;;;31.90;57.50;;;;;;5034994;28;20406;-83
2022/06/30 12:32:33;;;;;;;5.37;3.70;;;32.00;58.70;;;;;;5052763;28;20456;-83
2022/06/30 12:35:04;;;;;;;5.03;3.10;;;32.20;59.80;;;;;;5035162;28;20426;-85
2022/06/30 12:37:34;;;;;;;7.20;4.17;;;32.30;58.90;;;;;;5052487;28;20184;-84
2022/06/30 12:40:06;;;;;;;7.47;3.73;;;32.40;60.70;;;;;;5052285;28;20406;-83
2022/06/30 12:42:59;;;;;;;4.67;3.63;;;32.30;58.80;;;;;;5052305;28;20438;-83
2022/06/30 12:45:48;;;;;;;4.13;3.33;;;32.50;59.20;;;;;;5031690;28;20430;-84
2022/06/30 12:48:35;;;;;;;3.90;3.40;;;32.60;60.50;;;;;;5052471;28;20465;-84
2022/06/30 12:51:00;;;;;;;6.27;3.70;;;32.60;57.00;;;;;;5052067;28;20472;-83
2022/06/30 12:53:27;;;;;;;5.80;3.23;;;32.40;56.90;;;;;;5034068;28;20430;-82
2022/06/30 12:56:01;;;;;;;5.00;3.67;;;32.40;58.20;;;;;;5051718;28;20176;-82
2022/06/30 12:58:46;;;;;;;5.93;3.90;;;32.70;59.80;;;;;;5033942;28;20410;-82
2022/06/30 13:01:29;;;;;;;4.70;3.47;;;32.90;58.50;;;;;;5033793;28;20465;-86
2022/06/30 13:04:07;;;;;;;4.27;3.53;;;33.10;59.00;;;;;;5051914;28;20421;-84
2022/06/30 13:06:41;;;;;;;6.87;4.07;;;33.10;58.50;;;;;;5033867;28;20432;-83